Time;durP1;ratioP1;P1;durP2;ratioP2;P2;SDS_P1;SDS_P2;PMS_P1;PMS_P2;Temp;Humidity;BMP_temperature;BMP_pressure;BME280_temperature;BME280_humidity;BME280_pressure;Samples;Min_cycle;Max_cycle;Signal;HPM_P1;HPM_P2
2023/11/20 00:00:54;;;;;;;22.30;12.80;;;;;;;0.98;90.05;95322.42;106786;1274;25463;-82
2023/11/20 00:03:38;;;;;;;22.50;12.70;;;;;;;1.01;89.65;95325.73;106787;1274;22526;-82
2023/11/20 00:06:07;;;;;;;19.50;11.60;;;;;;;1.00;89.60;95331.09;106807;1274;24044;-82
2023/11/20 00:08:35;;;;;;;20.30;11.30;;;;;;;1.02;89.76;95331.83;106779;1275;24324;-82
2023/11/20 00:11:04;;;;;;;19.50;11.90;;;;;;;1.03;89.46;95320.23;106740;1274;22523;-83
2023/11/20 00:13:32;;;;;;;19.50;11.40;;;;;;;1.02;89.97;95324.03;106823;1275;22524;-82
2023/11/20 00:16:00;;;;;;;19.40;11.30;;;;;;;1.08;90.16;95325.15;106751;1274;26544;-82
2023/11/20 00:18:29;;;;;;;18.10;11.10;;;;;;;1.14;90.24;95328.49;106703;1274;22526;-83
2023/11/20 00:20:57;;;;;;;10.90;7.50;;;;;;;1.16;90.07;95324.38;106797;1275;22635;-81
2023/11/20 00:23:25;;;;;;;12.60;6.70;;;;;;;1.21;89.91;95323.92;107010;1275;24376;-82
2023/11/20 00:25:54;;;;;;;16.90;9.20;;;;;;;1.30;90.00;95329.59;107080;1275;25379;-82
2023/11/20 00:28:22;;;;;;;9.20;5.70;;;;;;;1.40;90.02;95324.86;107079;1274;22666;-82
2023/11/20 00:30:50;;;;;;;8.20;5.20;;;;;;;1.48;89.66;95333.27;107100;1274;22520;-82
2023/11/20 00:33:19;;;;;;;6.90;4.70;;;;;;;1.57;89.70;95336.14;107022;1274;24213;-82
2023/11/20 00:35:47;;;;;;;7.30;4.70;;;;;;;1.66;89.30;95334.87;107108;1274;22523;-82
2023/11/20 00:38:15;;;;;;;6.20;4.20;;;;;;;1.74;89.24;95333.92;107070;1274;22653;-82
2023/11/20 00:40:44;;;;;;;7.30;4.10;;;;;;;1.80;88.52;95328.42;107077;1274;24243;-81
2023/11/20 00:43:13;;;;;;;8.70;5.50;;;;;;;1.86;88.72;95320.86;107089;1275;25390;-81
2023/11/20 00:45:42;;;;;;;7.80;5.20;;;;;;;1.90;88.26;95318.66;106855;1274;22521;-82
2023/11/20 00:48:11;;;;;;;5.90;4.50;;;;;;;1.87;87.58;95320.17;106839;1274;22523;-82
2023/11/20 00:50:39;;;;;;;12.40;8.20;;;;;;;1.92;88.46;95312.95;106787;1274;24201;-82
2023/11/20 00:53:07;;;;;;;13.80;8.80;;;;;;;1.97;87.98;95311.96;106691;1274;25520;-82
2023/11/20 00:55:35;;;;;;;16.70;9.40;;;;;;;1.94;87.45;95303.78;106680;1274;22605;-83
2023/11/20 00:58:03;;;;;;;17.00;10.40;;;;;;;1.93;87.69;95284.16;106755;1274;22704;-83
2023/11/20 01:00:32;;;;;;;20.10;11.70;;;;;;;1.93;87.68;95282.09;106678;1275;24219;-82
2023/11/20 01:03:00;;;;;;;18.40;11.10;;;;;;;1.89;87.71;95273.20;106891;1274;24737;-82
2023/11/20 01:05:29;;;;;;;15.30;9.50;;;;;;;1.93;87.98;95264.73;106819;1274;24938;-82
2023/11/20 01:07:57;;;;;;;13.00;8.50;;;;;;;1.91;87.60;95257.61;106931;1274;22632;-82
2023/11/20 01:10:25;;;;;;;14.30;9.10;;;;;;;1.87;87.43;95261.03;106952;1274;24531;-83
2023/11/20 01:12:53;;;;;;;11.10;7.10;;;;;;;1.85;87.84;95259.81;106810;1274;22776;-82
2023/11/20 01:15:21;;;;;;;14.00;8.50;;;;;;;1.78;87.40;95276.91;106738;1274;22608;-82
2023/11/20 01:17:49;;;;;;;17.00;9.40;;;;;;;1.71;87.48;95270.77;106829;1275;22509;-82
2023/11/20 01:20:17;;;;;;;14.00;8.90;;;;;;;1.68;87.65;95272.31;106662;1275;22524;-82
2023/11/20 01:22:45;;;;;;;14.70;9.00;;;;;;;1.68;87.78;95272.30;107065;1274;22643;-81
2023/11/20 01:25:14;;;;;;;13.20;8.10;;;;;;;1.66;87.75;95266.40;107105;1275;22647;-82
2023/11/20 01:27:43;;;;;;;13.30;8.10;;;;;;;1.65;87.75;95256.48;106998;1275;22540;-82
2023/11/20 01:30:11;;;;;;;12.80;8.60;;;;;;;1.64;87.88;95254.06;106863;1274;22647;-82
2023/11/20 01:32:39;;;;;;;13.60;8.00;;;;;;;1.63;88.02;95248.31;107009;1275;22533;-82
2023/11/20 01:35:08;;;;;;;14.00;8.60;;;;;;;1.60;87.72;95245.34;107030;1275;22517;-81
2023/11/20 01:37:37;;;;;;;15.60;9.80;;;;;;;1.56;87.65;95248.42;107123;1274;22530;-81
2023/11/20 01:40:07;;;;;;;17.40;10.80;;;;;;;1.51;87.46;95252.18;107065;1274;24285;-81
2023/11/20 01:42:35;;;;;;;16.80;10.60;;;;;;;1.46;87.45;95257.86;107060;1274;23922;-81
2023/11/20 01:45:07;;;;;;;16.00;10.90;;;;;;;1.42;87.57;95247.73;107072;1274;25430;-82
2023/11/20 01:47:37;;;;;;;14.80;9.40;;;;;;;1.40;87.88;95250.15;106762;1274;25425;-82
2023/11/20 01:50:10;;;;;;;14.20;8.80;;;;;;;1.36;88.34;95248.38;106729;1275;24231;-82
2023/11/20 01:52:44;;;;;;;14.70;8.80;;;;;;;1.33;88.36;95244.02;106799;1275;22565;-81
2023/11/20 01:55:13;;;;;;;11.30;7.10;;;;;;;1.34;88.49;95244.20;106669;1275;22744;-82
2023/11/20 01:57:44;;;;;;;13.20;8.00;;;;;;;1.35;88.69;95240.22;106736;1264;24247;-82
2023/11/20 02:00:16;;;;;;;15.00;9.40;;;;;;;1.35;88.51;95236.92;106782;1275;24216;-82
2023/11/20 02:02:45;;;;;;;16.50;9.80;;;;;;;1.36;88.86;95225.69;106925;1274;23489;-82
2023/11/20 02:05:15;;;;;;;13.70;9.60;;;;;;;1.40;89.06;95226.06;107009;1275;22524;-82
2023/11/20 02:07:43;;;;;;;13.20;9.20;;;;;;;1.45;89.33;95221.45;107072;1274;25428;-82
2023/11/20 02:10:11;;;;;;;16.80;9.40;;;;;;;1.48;89.59;95222.70;106998;1275;24515;-81
2023/11/20 02:12:40;;;;;;;15.60;9.70;;;;;;;1.53;89.57;95218.74;107083;1274;22616;-81
2023/11/20 02:15:09;;;;;;;13.80;8.40;;;;;;;1.60;89.75;95221.42;106945;1260;22511;-82
2023/11/20 02:17:38;;;;;;;14.00;8.40;;;;;;;1.71;89.91;95207.99;106778;1275;25424;-81
2023/11/20 02:20:07;;;;;;;10.20;6.70;;;;;;;1.84;90.28;95211.08;106696;1275;22512;-82
2023/11/20 02:22:35;;;;;;;9.20;6.00;;;;;;;1.97;90.13;95208.05;106611;1265;22548;-81
2023/11/20 02:25:04;;;;;;;8.80;6.20;;;;;;;2.04;89.68;95200.65;106760;1254;24410;-82
2023/11/20 02:28:14;;;;;;;8.40;5.70;;;;;;;2.02;89.12;95203.93;106745;1274;23041;-82
2023/11/20 02:30:42;;;;;;;7.10;4.80;;;;;;;2.10;89.83;95201.73;106758;1263;24289;-82
2023/11/20 02:33:10;;;;;;;11.70;7.00;;;;;;;2.15;89.45;95190.67;107502;1254;22516;-83
2023/11/20 02:35:38;;;;;;;12.00;7.80;;;;;;;2.19;89.52;95190.02;106742;1275;22532;-82
2023/11/20 02:38:06;;;;;;;15.90;10.00;;;;;;;2.21;89.07;95187.59;107008;1274;25525;-81
2023/11/20 02:40:34;;;;;;;14.90;8.80;;;;;;;2.21;89.27;95187.93;107120;1274;22530;-82
2023/11/20 02:43:03;;;;;;;13.80;7.20;;;;;;;2.28;89.54;95191.80;106814;1275;22552;-81
2023/11/20 02:45:35;;;;;;;9.00;5.60;;;;;;;2.32;89.25;95192.87;107031;1274;22574;-82
2023/11/20 02:48:03;;;;;;;11.60;7.80;;;;;;;2.26;88.81;95192.13;107061;1275;24230;-82
2023/11/20 02:50:34;;;;;;;20.70;11.40;;;;;;;2.19;88.83;95191.91;107055;1275;22543;-81
2023/11/20 02:53:02;;;;;;;14.80;9.80;;;;;;;2.16;88.81;95184.09;107054;1275;22523;-82
2023/11/20 02:55:30;;;;;;;14.60;10.00;;;;;;;2.22;89.43;95180.83;107081;1275;22535;-82
2023/11/20 02:57:59;;;;;;;12.40;9.20;;;;;;;2.29;89.18;95180.00;107086;1274;25353;-81
2023/11/20 03:00:27;;;;;;;12.10;7.60;;;;;;;2.28;88.67;95177.39;106801;1275;22632;-82
2023/11/20 03:02:55;;;;;;;11.30;7.20;;;;;;;2.25;88.43;95177.73;106796;1275;24246;-82
2023/11/20 03:05:23;;;;;;;11.70;6.70;;;;;;;2.25;88.58;95178.23;106756;1275;23913;-82
2023/11/20 03:07:52;;;;;;;7.30;5.80;;;;;;;2.26;88.76;95172.87;106639;1275;25497;-82
2023/11/20 03:10:20;;;;;;;8.80;5.70;;;;;;;2.34;89.41;95180.56;106808;1274;26093;-82
2023/11/20 03:12:48;;;;;;;8.80;6.40;;;;;;;2.40;89.19;95183.02;106694;1274;24214;-82
2023/11/20 03:15:16;;;;;;;10.30;7.30;;;;;;;2.45;89.55;95184.45;106788;1275;22756;-82
2023/11/20 03:17:45;;;;;;;11.80;7.80;;;;;;;2.52;89.38;95179.96;106724;1274;25334;-82
2023/11/20 03:20:13;;;;;;;12.50;8.50;;;;;;;2.57;89.51;95185.91;106790;1274;22646;-81
2023/11/20 03:22:41;;;;;;;12.20;8.00;;;;;;;2.56;88.80;95188.33;106801;1275;24241;-82
2023/11/20 03:25:10;;;;;;;12.10;8.20;;;;;;;2.52;88.71;95188.83;106772;1275;25386;-82
2023/11/20 03:27:39;;;;;;;14.00;8.60;;;;;;;2.51;88.67;95194.56;106989;1275;25249;-82
2023/11/20 03:30:09;;;;;;;12.60;7.40;;;;;;;2.43;88.36;95197.80;107171;1274;25348;-82
2023/11/20 03:32:37;;;;;;;12.90;8.30;;;;;;;2.38;88.39;95192.39;107083;1272;22520;-81
2023/11/20 03:35:05;;;;;;;12.30;7.50;;;;;;;2.34;88.54;95182.98;106807;1274;25427;-82
2023/11/20 03:37:34;;;;;;;12.60;7.60;;;;;;;2.27;88.34;95181.73;106805;1275;24254;-81
2023/11/20 03:40:03;;;;;;;11.10;7.30;;;;;;;2.24;88.44;95180.14;106753;1274;22546;-82
2023/11/20 03:42:32;;;;;;;11.20;7.70;;;;;;;2.22;88.58;95179.61;106798;1275;25375;-82
2023/11/20 03:45:01;;;;;;;13.70;8.40;;;;;;;2.20;88.79;95175.44;106639;1275;24222;-82
2023/11/20 03:47:29;;;;;;;13.70;8.40;;;;;;;2.19;89.02;95171.77;106640;1276;23150;-82
2023/11/20 03:49:57;;;;;;;11.20;7.60;;;;;;;2.17;89.25;95170.20;106584;1276;25379;-81
2023/11/20 03:52:26;;;;;;;9.20;6.00;;;;;;;2.17;89.13;95169.16;106644;1276;22532;-82
2023/11/20 03:54:54;;;;;;;10.20;6.40;;;;;;;2.16;89.21;95171.41;106592;1276;22536;-82
2023/11/20 03:57:22;;;;;;;11.80;7.90;;;;;;;2.14;89.24;95168.27;106631;1276;25427;-81
2023/11/20 03:59:50;;;;;;;11.80;8.00;;;;;;;2.13;89.30;95167.92;106580;1276;22522;-81
2023/11/20 04:02:19;;;;;;;8.50;5.90;;;;;;;2.12;89.17;95167.40;106614;1276;26536;-82
2023/11/20 04:04:47;;;;;;;13.70;8.20;;;;;;;2.10;88.87;95157.67;106682;1276;22517;-82
2023/11/20 04:07:16;;;;;;;14.20;8.90;;;;;;;2.12;89.07;95154.90;106667;1276;25239;-80
2023/11/20 04:09:44;;;;;;;16.90;10.30;;;;;;;2.13;89.24;95153.34;106614;1276;23019;-80
2023/11/20 04:12:12;;;;;;;16.10;9.90;;;;;;;2.15;89.41;95155.27;106639;1276;22781;-80
2023/11/20 04:14:40;;;;;;;42.40;23.80;;;;;;;2.15;89.60;95160.47;106597;1276;25440;-81
2023/11/20 04:17:09;;;;;;;361.30;175.20;;;;;;;2.12;89.65;95162.20;106715;1276;22543;-82
2023/11/20 04:19:38;;;;;;;113.10;53.00;;;;;;;2.06;89.71;95162.34;106751;1276;22531;-81
2023/11/20 04:22:07;;;;;;;17.60;11.70;;;;;;;2.06;89.83;95159.55;106635;1276;22534;-80
2023/11/20 04:24:35;;;;;;;17.30;11.20;;;;;;;2.06;89.69;95162.16;106942;1276;22525;-80
2023/11/20 04:27:04;;;;;;;15.00;10.00;;;;;;;2.08;89.79;95161.12;106820;1276;25354;-79
2023/11/20 04:29:32;;;;;;;16.10;10.30;;;;;;;2.13;89.82;95163.59;106732;1275;22619;-79
2023/11/20 04:32:00;;;;;;;13.60;9.50;;;;;;;2.19;90.15;95162.58;106893;1273;22530;-80
2023/11/20 04:34:28;;;;;;;15.80;9.80;;;;;;;2.23;89.97;95162.61;106959;1276;24893;-80
2023/11/20 04:36:56;;;;;;;12.90;8.60;;;;;;;2.21;89.58;95157.22;106908;1276;24960;-80
2023/11/20 04:39:24;;;;;;;16.50;10.00;;;;;;;2.18;89.44;95156.49;106896;1276;22528;-80
2023/11/20 04:41:52;;;;;;;15.10;8.80;;;;;;;2.25;90.12;95153.60;106779;1276;22614;-80
2023/11/20 04:44:20;;;;;;;34.00;23.60;;;;;;;2.32;90.10;95160.77;107032;1274;22517;-80
2023/11/20 04:46:49;;;;;;;23.50;14.20;;;;;;;2.36;90.08;95164.27;106964;1274;22733;-80
2023/11/20 04:49:17;;;;;;;20.10;12.60;;;;;;;2.45;90.41;95169.70;106803;1274;22523;-81
2023/11/20 04:51:45;;;;;;;22.20;15.80;;;;;;;2.51;90.18;95168.50;106938;1275;22584;-80
2023/11/20 04:54:14;;;;;;;18.10;11.80;;;;;;;2.57;90.41;95172.36;107121;1274;25469;-80
2023/11/20 04:56:44;;;;;;;35.70;28.30;;;;;;;2.61;89.57;95165.63;106988;1274;22635;-80
2023/11/20 04:59:12;;;;;;;19.90;12.20;;;;;;;2.63;89.57;95169.10;107019;1275;22520;-80
2023/11/20 05:01:40;;;;;;;17.30;11.90;;;;;;;2.67;89.49;95168.94;106965;1274;22521;-80
2023/11/20 05:04:09;;;;;;;21.30;15.90;;;;;;;2.70;89.36;95164.61;106689;1274;24547;-80
2023/11/20 05:06:37;;;;;;;27.20;20.30;;;;;;;2.78;89.53;95165.34;106887;1272;22520;-80
2023/11/20 05:09:06;;;;;;;27.30;20.30;;;;;;;2.82;89.23;95168.48;107009;1274;22636;-80
2023/11/20 05:11:37;;;;;;;22.20;14.40;;;;;;;2.76;88.54;95161.85;106765;1275;24034;-80
2023/11/20 05:14:05;;;;;;;16.70;11.10;;;;;;;2.76;89.04;95163.42;107102;1274;22531;-80
2023/11/20 05:16:34;;;;;;;13.50;9.70;;;;;;;2.75;88.95;95165.15;107050;1275;22524;-80
2023/11/20 05:19:03;;;;;;;15.50;11.00;;;;;;;2.72;88.60;95164.80;107074;1275;25376;-80
2023/11/20 05:21:31;;;;;;;52.30;31.30;;;;;;;2.67;88.37;95168.59;107066;1274;22537;-80
2023/11/20 05:23:59;;;;;;;25.10;17.00;;;;;;;2.63;88.63;95168.23;107056;1274;22538;-80
2023/11/20 05:26:27;;;;;;;14.90;9.80;;;;;;;2.58;88.58;95174.45;106844;1274;22633;-80
2023/11/20 05:28:56;;;;;;;13.70;9.20;;;;;;;2.53;88.63;95175.80;106957;1274;22525;-80
2023/11/20 05:31:25;;;;;;;14.60;9.70;;;;;;;2.46;88.59;95175.95;106914;1275;25366;-80
2023/11/20 05:33:54;;;;;;;19.90;13.70;;;;;;;2.39;88.63;95174.17;107021;1274;22529;-80
2023/11/20 05:36:23;;;;;;;17.00;12.00;;;;;;;2.35;88.80;95172.06;106887;1256;24372;-79
2023/11/20 05:38:51;;;;;;;13.50;10.20;;;;;;;2.30;88.75;95169.77;106985;1274;22635;-80
2023/11/20 05:41:19;;;;;;;13.30;9.20;;;;;;;2.26;88.84;95169.39;107038;1269;23235;-78
2023/11/20 05:43:47;;;;;;;14.60;8.90;;;;;;;2.23;88.84;95164.17;107128;1274;24341;-79
2023/11/20 05:46:16;;;;;;;15.50;11.30;;;;;;;2.19;89.04;95159.11;107204;1274;24241;-78
2023/11/20 05:48:44;;;;;;;25.40;16.40;;;;;;;2.17;89.47;95155.98;107191;1274;24211;-80
2023/11/20 05:51:18;;;;;;;32.80;19.50;;;;;;;2.14;89.93;95151.10;106957;1274;25411;-80
2023/11/20 05:53:47;;;;;;;20.50;14.90;;;;;;;2.12;89.83;95154.90;106997;1275;24490;-80
2023/11/20 05:56:15;;;;;;;19.50;13.00;;;;;;;2.10;89.92;95156.63;106857;1275;22548;-79
2023/11/20 05:58:43;;;;;;;19.60;12.20;;;;;;;2.12;89.81;95156.66;106766;1275;23024;-80
2023/11/20 06:01:12;;;;;;;19.80;13.10;;;;;;;2.15;89.97;95155.45;106759;1275;22661;-79
2023/11/20 06:03:40;;;;;;;19.60;12.30;;;;;;;2.18;90.15;95159.63;107099;1274;22524;-77
2023/11/20 06:06:09;;;;;;;20.50;12.30;;;;;;;2.21;90.30;95162.42;106981;1275;22563;-80
2023/11/20 06:08:37;;;;;;;17.90;11.60;;;;;;;2.24;90.58;95162.63;106932;1274;22532;-79
2023/11/20 06:11:05;;;;;;;161.70;83.80;;;;;;;2.29;90.59;95168.04;107154;1274;25411;-78
2023/11/20 06:13:33;;;;;;;109.60;62.40;;;;;;;2.37;90.72;95165.83;107117;1274;22619;-80
2023/11/20 06:16:01;;;;;;;15.20;11.10;;;;;;;2.46;90.99;95172.30;106864;1274;24298;-81
2023/11/20 06:18:31;;;;;;;21.90;14.70;;;;;;;2.53;90.83;95177.55;106773;1275;24339;-79
2023/11/20 06:20:59;;;;;;;61.70;36.40;;;;;;;2.62;90.94;95177.25;106993;1274;25422;-79
2023/11/20 06:23:27;;;;;;;35.10;23.40;;;;;;;2.71;91.25;95179.73;107086;1274;22531;-79
2023/11/20 06:25:56;;;;;;;33.60;19.30;;;;;;;2.81;91.11;95182.04;106996;1274;22603;-80
2023/11/20 06:28:24;;;;;;;21.60;15.40;;;;;;;2.89;91.03;95181.20;106721;1274;22719;-80
2023/11/20 06:30:52;;;;;;;21.60;13.60;;;;;;;2.95;90.72;95183.48;106805;1274;24394;-79
2023/11/20 06:33:21;;;;;;;18.10;11.70;;;;;;;2.99;90.65;95183.67;106796;1274;25245;-83
2023/11/20 06:35:50;;;;;;;41.40;22.60;;;;;;;3.04;90.89;95189.26;106668;1275;25422;-80
2023/11/20 06:38:18;;;;;;;50.70;26.10;;;;;;;3.17;91.14;95194.34;106781;1274;24306;-79
2023/11/20 06:40:46;;;;;;;30.90;19.20;;;;;;;3.22;90.73;95196.27;106921;1274;24221;-79
2023/11/20 06:43:14;;;;;;;44.40;24.10;;;;;;;3.25;90.15;95199.56;107066;1274;24474;-77
2023/11/20 06:45:42;;;;;;;23.50;14.10;;;;;;;3.27;90.20;95199.59;107097;1266;25468;-79
2023/11/20 06:48:11;;;;;;;26.70;21.50;;;;;;;3.30;90.09;95201.51;106800;1274;25369;-78
2023/11/20 06:50:39;;;;;;;19.60;14.50;;;;;;;3.38;90.52;95202.74;106995;1274;22633;-76
2023/11/20 06:53:08;;;;;;;17.10;11.10;;;;;;;3.45;90.28;95206.77;106964;1274;22535;-80
2023/11/20 06:55:37;;;;;;;67.90;57.00;;;;;;;3.53;90.40;95200.52;106803;1275;24319;-79
2023/11/20 06:58:05;;;;;;;24.50;18.90;;;;;;;3.62;90.11;95201.77;106570;1274;269481;-78
2023/11/20 07:00:34;;;;;;;28.90;22.30;;;;;;;3.72;90.44;95205.79;107013;1275;22677;-80
2023/11/20 07:03:04;;;;;;;17.70;13.10;;;;;;;3.77;89.68;95203.52;106845;1273;22547;-81
2023/11/20 07:05:34;;;;;;;17.20;12.40;;;;;;;3.73;89.39;95194.65;106989;1275;22538;-81
2023/11/20 07:08:06;;;;;;;23.40;16.00;;;;;;;3.68;88.87;95200.39;106920;1275;25512;-78
2023/11/20 07:10:35;;;;;;;20.80;17.10;;;;;;;3.66;88.75;95202.81;106954;1275;25661;-82
2023/11/20 07:13:04;;;;;;;19.70;16.60;;;;;;;3.56;88.14;95210.96;106924;1275;25319;-80
2023/11/20 07:15:33;;;;;;;16.10;12.10;;;;;;;3.45;88.25;95221.71;106938;1275;24495;-83
2023/11/20 07:18:02;;;;;;;19.40;12.80;;;;;;;3.37;88.20;95223.79;106903;1275;24210;-79
2023/11/20 07:20:31;;;;;;;41.10;31.60;;;;;;;3.29;88.15;95223.23;106893;1275;24241;-78
2023/11/20 07:23:01;;;;;;;20.30;13.70;;;;;;;3.22;88.14;95224.58;107009;1275;24272;-79
2023/11/20 07:25:34;;;;;;;19.60;12.80;;;;;;;3.18;88.58;95223.72;106698;1275;22515;-80
2023/11/20 07:28:03;;;;;;;21.90;13.40;;;;;;;3.21;88.97;95223.20;106899;1275;25488;-81
2023/11/20 07:30:32;;;;;;;22.20;12.80;;;;;;;3.21;89.00;95223.55;106923;1275;24218;-79
2023/11/20 07:33:01;;;;;;;24.50;17.10;;;;;;;3.24;88.92;95216.77;106908;1275;22817;-83
2023/11/20 07:35:30;;;;;;;20.70;14.90;;;;;;;3.22;89.14;95219.39;106936;1275;24231;-81
2023/11/20 07:38:01;;;;;;;20.70;14.50;;;;;;;3.24;89.22;95218.52;106811;1275;22666;-81
2023/11/20 07:40:29;;;;;;;16.40;11.10;;;;;;;3.25;89.36;95212.96;106957;1275;25638;-78
2023/11/20 07:42:57;;;;;;;17.70;12.70;;;;;;;3.29;89.52;95213.49;106773;1275;26541;-79
2023/11/20 07:45:26;;;;;;;15.20;9.60;;;;;;;3.30;89.40;95214.89;106974;1275;22530;-82
2023/11/20 07:47:54;;;;;;;36.20;24.00;;;;;;;3.26;89.31;95210.52;106815;1275;22534;-82
2023/11/20 07:50:22;;;;;;;32.00;21.90;;;;;;;3.30;89.31;95214.55;106983;1275;22737;-83
2023/11/20 07:52:50;;;;;;;25.50;17.80;;;;;;;3.35;89.51;95212.98;107049;1275;22659;-81
2023/11/20 07:55:18;;;;;;;18.60;11.80;;;;;;;3.41;89.72;95209.36;106977;1260;24286;-82
2023/11/20 07:57:47;;;;;;;20.60;12.40;;;;;;;3.49;89.91;95214.08;106881;1275;25600;-79
2023/11/20 08:00:15;;;;;;;21.20;11.80;;;;;;;3.55;89.68;95213.05;106755;1275;22798;-80
2023/11/20 08:02:44;;;;;;;16.80;11.00;;;;;;;3.62;89.85;95206.11;106980;1275;22576;-80
2023/11/20 08:05:12;;;;;;;16.50;10.70;;;;;;;3.71;89.89;95201.43;106973;1275;22623;-81
2023/11/20 08:07:42;;;;;;;16.60;10.50;;;;;;;3.81;90.03;95205.95;106913;1260;22644;-80
2023/11/20 08:10:10;;;;;;;18.80;10.90;;;;;;;3.89;89.79;95206.84;106969;1275;24081;-80
2023/11/20 08:12:39;;;;;;;20.30;11.20;;;;;;;3.97;89.78;95207.20;110471;1275;22921;-80
2023/11/20 08:15:11;;;;;;;20.90;10.70;;;;;;;4.07;89.55;95205.46;109062;1275;25249;-80
2023/11/20 08:17:40;;;;;;;;;;;;;;;4.16;89.62;95205.63;106777;1275;24336;-81
2023/11/20 08:20:09;;;;;;;19.00;11.60;;;;;;;4.23;89.11;95207.89;106797;1275;22648;-82
2023/11/20 08:22:38;;;;;;;19.30;10.60;;;;;;;4.32;89.67;95209.47;107316;1275;25520;-84
2023/11/20 08:25:06;;;;;;;21.60;12.90;;;;;;;4.43;88.92;95206.13;107125;1275;22534;-82
2023/11/20 08:27:37;;;;;;;23.10;13.60;;;;;;;4.47;88.52;95206.13;107049;1275;25344;-82
2023/11/20 08:30:10;;;;;;;20.70;12.70;;;;;;;4.53;88.67;95206.46;106931;1275;23888;-83
2023/11/20 08:32:38;;;;;;;16.70;9.50;;;;;;;4.58;87.94;95201.59;106861;1275;25354;-81
2023/11/20 08:35:06;;;;;;;12.60;8.30;;;;;;;4.61;88.39;95200.70;106950;1275;25249;-81
2023/11/20 08:37:35;;;;;;;14.10;9.90;;;;;;;4.71;88.74;95201.74;106704;1275;22534;-81
2023/11/20 08:40:07;;;;;;;15.50;8.70;;;;;;;4.83;88.64;95200.65;106902;1275;22622;-82
2023/11/20 08:42:35;;;;;;;27.40;14.70;;;;;;;4.92;88.31;95200.11;106898;1275;25648;-82
2023/11/20 08:45:04;;;;;;;17.70;12.30;;;;;;;4.99;88.27;95202.19;106757;1275;25392;-81
2023/11/20 08:47:35;;;;;;;22.90;14.60;;;;;;;5.06;88.21;95205.29;107992;1275;25431;-83
2023/11/20 08:50:05;;;;;;;19.10;12.30;;;;;;;5.12;87.99;95211.89;106893;1275;25363;-81
2023/11/20 08:52:34;;;;;;;16.50;10.70;;;;;;;5.21;88.60;95209.06;106827;1260;24384;-80
2023/11/20 08:55:02;;;;;;;18.40;10.10;;;;;;;5.28;88.15;95207.13;106891;1275;24228;-82
2023/11/20 08:57:30;;;;;;;17.50;11.70;;;;;;;5.28;87.50;95206.23;106776;1275;25293;-81
2023/11/20 08:59:59;;;;;;;29.90;16.70;;;;;;;5.30;87.41;95205.02;106788;1275;22558;-81
2023/11/20 09:02:27;;;;;;;29.90;16.10;;;;;;;5.26;86.65;95201.91;106829;1275;24268;-80
2023/11/20 09:04:56;;;;;;;41.40;22.70;;;;;;;5.25;86.87;95204.17;107032;1275;25281;-81
2023/11/20 09:07:24;;;;;;;22.40;13.70;;;;;;;5.25;86.51;95197.73;106889;1275;22523;-82
2023/11/20 09:09:53;;;;;;;34.20;22.40;;;;;;;5.26;86.80;95198.07;106889;1275;22543;-81
2023/11/20 09:12:21;;;;;;;21.50;13.30;;;;;;;5.27;86.60;95192.48;106822;1275;22657;-82
2023/11/20 09:14:49;;;;;;;20.50;14.20;;;;;;;5.27;86.47;95191.27;106900;1275;22592;-82
2023/11/20 09:17:18;;;;;;;19.60;11.00;;;;;;;5.28;86.64;95190.55;106921;1275;22779;-83
2023/11/20 09:19:46;;;;;;;22.00;13.50;;;;;;;5.29;86.60;95182.02;107387;1275;23707;-82
2023/11/20 09:22:14;;;;;;;18.40;13.00;;;;;;;5.31;86.84;95176.24;107034;1275;24696;-81
2023/11/20 09:24:43;;;;;;;16.90;11.40;;;;;;;5.37;87.05;95164.52;107060;1270;22640;-81
2023/11/20 09:27:23;;;;;;;19.60;14.00;;;;;;;5.45;86.98;95165.52;107086;1275;22536;-81
2023/11/20 09:29:51;;;;;;;17.60;12.40;;;;;;;5.50;86.75;95158.34;106891;1275;22642;-82
2023/11/20 09:32:20;;;;;;;18.80;11.40;;;;;;;5.57;86.80;95153.59;106991;1275;26515;-79
2023/11/20 09:34:48;;;;;;;14.90;9.70;;;;;;;5.68;86.84;95149.67;107176;1275;25245;-78
2023/11/20 09:37:16;;;;;;;14.70;8.60;;;;;;;5.76;86.53;95145.96;107187;1275;25351;-80
2023/11/20 09:39:46;;;;;;;14.60;9.00;;;;;;;5.80;86.44;95139.64;106942;1264;25093;-81
2023/11/20 09:42:14;;;;;;;17.50;9.70;;;;;;;5.82;86.18;95142.25;106992;1275;24218;-79
2023/11/20 09:44:46;;;;;;;16.50;10.60;;;;;;;5.82;85.98;95141.04;106864;1275;22538;-80
2023/11/20 09:47:15;;;;;;;17.40;10.00;;;;;;;5.80;85.98;95135.45;106868;1275;24066;-82
2023/11/20 09:49:45;;;;;;;17.20;9.90;;;;;;;5.78;85.98;95138.44;106905;1275;22537;-80
2023/11/20 09:52:14;;;;;;;14.10;9.10;;;;;;;5.77;86.04;95143.33;106792;1275;25576;-80
2023/11/20 09:54:43;;;;;;;12.10;7.80;;;;;;;5.75;85.97;95140.55;107021;1275;25252;-79
2023/11/20 09:57:14;;;;;;;12.40;8.00;;;;;;;5.72;85.77;95138.13;107533;1275;22889;-82
2023/11/20 09:59:42;;;;;;;15.10;8.90;;;;;;;5.75;85.88;95136.71;107264;1275;22533;-81
2023/11/20 10:02:10;;;;;;;14.50;8.70;;;;;;;5.80;86.08;95134.23;107109;1275;22618;-80
2023/11/20 10:04:41;;;;;;;17.20;10.70;;;;;;;5.87;86.06;95129.98;106939;1275;25245;-82
2023/11/20 10:07:14;;;;;;;15.90;8.60;;;;;;;5.94;86.23;95124.20;107036;1275;22527;-81
2023/11/20 10:09:51;;;;;;;10.50;6.40;;;;;;;6.04;86.42;95124.13;107144;1275;24232;-82
2023/11/20 10:12:21;;;;;;;11.60;6.90;;;;;;;6.13;86.09;95117.41;106981;1275;23272;-81
2023/11/20 10:14:49;;;;;;;8.90;6.10;;;;;;;6.18;85.72;95113.17;107025;1275;22765;-82
2023/11/20 10:17:19;;;;;;;11.90;6.40;;;;;;;6.27;86.25;95117.29;106965;1275;24677;-82
2023/11/20 10:19:47;;;;;;;7.50;5.90;;;;;;;6.41;86.60;95113.48;107225;1275;22523;-84
2023/11/20 10:22:19;;;;;;;7.60;3.40;;;;;;;6.45;84.92;95109.23;106978;1275;25571;-81
2023/11/20 10:24:48;;;;;;;9.70;3.40;;;;;;;6.50;85.09;95105.35;107192;1275;22659;-80
2023/11/20 10:27:17;;;;;;;6.00;3.40;;;;;;;6.56;85.60;95105.29;106936;1275;23894;-80
2023/11/20 10:29:45;;;;;;;4.80;3.00;;;;;;;6.69;85.96;95102.34;106926;1275;25522;-80
2023/11/20 10:32:15;;;;;;;5.80;3.80;;;;;;;6.88;86.37;95107.19;107110;1275;25504;-80
2023/11/20 10:34:43;;;;;;;8.50;4.40;;;;;;;7.05;85.97;95106.45;107071;1275;22535;-80
2023/11/20 10:37:12;;;;;;;14.80;7.00;;;;;;;7.16;85.57;95109.11;106871;1275;24806;-81
2023/11/20 10:39:40;;;;;;;15.80;9.40;;;;;;;7.21;84.44;95104.32;106820;1275;25586;-81
2023/11/20 10:42:10;;;;;;;8.50;5.30;;;;;;;7.22;84.34;95102.57;106884;1275;22653;-81
2023/11/20 10:44:39;;;;;;;8.00;4.90;;;;;;;7.18;82.65;95102.78;107095;1275;25303;-80
2023/11/20 10:47:07;;;;;;;11.40;7.60;;;;;;;7.16;83.24;95104.39;106935;1275;22479;-81
2023/11/20 10:49:39;;;;;;;12.80;6.00;;;;;;;7.13;83.65;95102.50;106648;1275;24027;-81
2023/11/20 10:52:25;;;;;;;12.70;7.10;;;;;;;7.14;83.48;95101.24;107036;1275;25468;-81
2023/11/20 10:55:00;;;;;;;8.70;4.40;;;;;;;7.15;82.57;95097.74;106965;1275;24314;-81
2023/11/20 10:57:32;;;;;;;4.40;3.00;;;;;;;7.11;81.21;95096.40;106769;1275;25555;-81
2023/11/20 11:00:09;;;;;;;6.80;3.00;;;;;;;7.09;80.79;95097.83;106843;1272;22569;-81
2023/11/20 11:02:41;;;;;;;4.60;2.90;;;;;;;7.12;80.95;95097.42;106955;1275;22656;-81
2023/11/20 11:05:12;;;;;;;5.70;3.10;;;;;;;7.17;81.54;95096.49;106904;1275;22528;-80
2023/11/20 11:07:42;;;;;;;7.40;3.00;;;;;;;7.24;81.48;95096.23;106937;1266;22530;-81
2023/11/20 11:10:10;;;;;;;9.70;3.40;;;;;;;7.29;81.17;95086.01;106812;1275;25290;-81
2023/11/20 11:12:43;;;;;;;4.20;2.30;;;;;;;7.36;81.18;95084.19;106880;1275;22544;-81
2023/11/20 11:15:15;;;;;;;3.60;2.20;;;;;;;7.46;80.92;95085.25;107021;1275;24294;-81
2023/11/20 11:18:12;;;;;;;7.30;2.50;;;;;;;7.56;80.63;95086.66;106798;1275;24250;-81
2023/11/20 11:20:43;;;;;;;5.40;2.40;;;;;;;7.66;80.02;95081.43;106731;1275;22525;-81
2023/11/20 11:23:14;;;;;;;3.70;2.20;;;;;;;7.68;78.81;95076.87;106828;1275;22790;-81
2023/11/20 11:25:54;;;;;;;7.60;2.70;;;;;;;7.74;78.91;95082.36;106968;1270;22624;-82
2023/11/20 11:28:24;;;;;;;6.00;2.50;;;;;;;7.79;77.97;95079.14;107054;1275;22581;-81
2023/11/20 11:30:53;;;;;;;3.00;2.10;;;;;;;7.87;78.86;95079.18;106871;1260;26624;-81